sensor_id;sensor_type;location;lat;lon;timestamp;temperature;humidity
56234;DHT22;42141;53.240;6.580;2022-09-09T00:02:27;15.50;99.90
56234;DHT22;42141;53.240;6.580;2022-09-09T00:05:12;15.30;99.90
56234;DHT22;42141;53.240;6.580;2022-09-09T00:07:51;15.20;99.90
56234;DHT22;42141;53.240;6.580;2022-09-09T00:13:28;15.10;99.90
56234;DHT22;42141;53.240;6.580;2022-09-09T00:15:57;15.10;99.90
56234;DHT22;42141;53.240;6.580;2022-09-09T00:18:45;15.00;99.90
56234;DHT22;42141;53.240;6.580;2022-09-09T00:21:17;15.00;99.90
56234;DHT22;42141;53.240;6.580;2022-09-09T00:23:50;15.00;99.90
56234;DHT22;42141;53.240;6.580;2022-09-09T00:26:38;15.00;99.90
56234;DHT22;42141;53.240;6.580;2022-09-09T00:29:43;15.00;99.90
56234;DHT22;42141;53.240;6.580;2022-09-09T00:32:16;15.10;99.90
56234;DHT22;42141;53.240;6.580;2022-09-09T00:35:04;14.90;99.90
56234;DHT22;42141;53.240;6.580;2022-09-09T00:37:37;14.90;99.90
56234;DHT22;42141;53.240;6.580;2022-09-09T00:40:18;13.90;99.90
56234;DHT22;42141;53.240;6.580;2022-09-09T00:43:20;15.30;99.90
56234;DHT22;42141;53.240;6.580;2022-09-09T00:45:55;14.80;99.90
56234;DHT22;42141;53.240;6.580;2022-09-09T00:48:40;14.80;99.90
56234;DHT22;42141;53.240;6.580;2022-09-09T00:51:42;14.80;99.90
56234;DHT22;42141;53.240;6.580;2022-09-09T00:54:16;14.70;99.90
56234;DHT22;42141;53.240;6.580;2022-09-09T00:57:30;14.80;99.90
56234;DHT22;42141;53.240;6.580;2022-09-09T01:05:30;14.70;99.90
56234;DHT22;42141;53.240;6.580;2022-09-09T01:08:01;14.70;99.90
56234;DHT22;42141;53.240;6.580;2022-09-09T01:10:50;14.70;99.90
56234;DHT22;42141;53.240;6.580;2022-09-09T01:13:28;14.70;99.90
56234;DHT22;42141;53.240;6.580;2022-09-09T01:16:01;15.60;99.90
56234;DHT22;42141;53.240;6.580;2022-09-09T01:18:31;14.70;99.90
56234;DHT22;42141;53.240;6.580;2022-09-09T01:26:48;14.60;99.90
56234;DHT22;42141;53.240;6.580;2022-09-09T01:29:17;14.60;99.90
56234;DHT22;42141;53.240;6.580;2022-09-09T01:31:59;15.00;99.90
56234;DHT22;42141;53.240;6.580;2022-09-09T01:34:37;14.80;99.90
56234;DHT22;42141;53.240;6.580;2022-09-09T01:37:06;14.60;99.90
56234;DHT22;42141;53.240;6.580;2022-09-09T01:39:34;13.80;99.90
56234;DHT22;42141;53.240;6.580;2022-09-09T01:42:02;14.60;99.90
56234;DHT22;42141;53.240;6.580;2022-09-09T01:44:29;14.50;99.90
56234;DHT22;42141;53.240;6.580;2022-09-09T01:46:55;15.10;99.90
56234;DHT22;42141;53.240;6.580;2022-09-09T01:49:21;14.50;99.90
56234;DHT22;42141;53.240;6.580;2022-09-09T01:51:51;14.90;99.90
56234;DHT22;42141;53.240;6.580;2022-09-09T01:54:18;14.50;99.90
56234;DHT22;42141;53.240;6.580;2022-09-09T01:56:55;14.50;99.90
56234;DHT22;42141;53.240;6.580;2022-09-09T02:05:09;14.50;99.90
56234;DHT22;42141;53.240;6.580;2022-09-09T02:07:40;14.50;99.90
56234;DHT22;42141;53.240;6.580;2022-09-09T02:10:31;14.50;99.90
56234;DHT22;42141;53.240;6.580;2022-09-09T02:13:05;14.60;99.90
56234;DHT22;42141;53.240;6.580;2022-09-09T02:18:01;14.90;99.90
56234;DHT22;42141;53.240;6.580;2022-09-09T02:20:32;14.60;99.90
56234;DHT22;42141;53.240;6.580;2022-09-09T02:22:59;15.80;99.90
56234;DHT22;42141;53.240;6.580;2022-09-09T02:25:28;14.60;99.90
56234;DHT22;42141;53.240;6.580;2022-09-09T02:27:55;14.70;99.90
56234;DHT22;42141;53.240;6.580;2022-09-09T02:30:23;14.70;99.90
56234;DHT22;42141;53.240;6.580;2022-09-09T02:32:51;14.70;99.90
56234;DHT22;42141;53.240;6.580;2022-09-09T02:35:21;14.70;99.90
56234;DHT22;42141;53.240;6.580;2022-09-09T02:37:50;14.70;99.90
56234;DHT22;42141;53.240;6.580;2022-09-09T02:40:17;15.10;99.90
56234;DHT22;42141;53.240;6.580;2022-09-09T02:42:48;14.70;99.90
56234;DHT22;42141;53.240;6.580;2022-09-09T02:45:18;14.60;99.90
56234;DHT22;42141;53.240;6.580;2022-09-09T02:48:03;14.70;99.90
56234;DHT22;42141;53.240;6.580;2022-09-09T02:50:35;14.60;99.90
56234;DHT22;42141;53.240;6.580;2022-09-09T02:53:20;14.70;99.90
56234;DHT22;42141;53.240;6.580;2022-09-09T02:55:54;15.40;99.90
56234;DHT22;42141;53.240;6.580;2022-09-09T02:58:21;14.70;99.90
56234;DHT22;42141;53.240;6.580;2022-09-09T03:00:48;14.70;99.90
56234;DHT22;42141;53.240;6.580;2022-09-09T03:03:15;14.70;99.90
56234;DHT22;42141;53.240;6.580;2022-09-09T03:05:43;14.70;99.90
56234;DHT22;42141;53.240;6.580;2022-09-09T03:08:09;14.70;99.90
56234;DHT22;42141;53.240;6.580;2022-09-09T03:10:35;14.70;99.90
56234;DHT22;42141;53.240;6.580;2022-09-09T03:13:03;16.10;99.90
56234;DHT22;42141;53.240;6.580;2022-09-09T03:15:32;14.80;99.90
56234;DHT22;42141;53.240;6.580;2022-09-09T03:17:58;15.50;99.90
56234;DHT22;42141;53.240;6.580;2022-09-09T03:20:28;14.80;99.90
56234;DHT22;42141;53.240;6.580;2022-09-09T03:22:55;15.30;99.90
56234;DHT22;42141;53.240;6.580;2022-09-09T03:25:21;14.80;99.90
56234;DHT22;42141;53.240;6.580;2022-09-09T03:27:52;14.90;99.90
56234;DHT22;42141;53.240;6.580;2022-09-09T03:30:21;14.80;99.90
56234;DHT22;42141;53.240;6.580;2022-09-09T03:32:46;14.80;99.90
56234;DHT22;42141;53.240;6.580;2022-09-09T03:35:12;15.50;99.90
56234;DHT22;42141;53.240;6.580;2022-09-09T03:37:38;14.80;99.90
56234;DHT22;42141;53.240;6.580;2022-09-09T03:40:04;14.90;99.90
56234;DHT22;42141;53.240;6.580;2022-09-09T03:42:30;14.80;99.90
56234;DHT22;42141;53.240;6.580;2022-09-09T03:44:56;15.00;99.90
56234;DHT22;42141;53.240;6.580;2022-09-09T03:47:23;15.10;99.90
56234;DHT22;42141;53.240;6.580;2022-09-09T03:49:49;14.80;99.90
56234;DHT22;42141;53.240;6.580;2022-09-09T03:52:15;14.80;99.90
56234;DHT22;42141;53.240;6.580;2022-09-09T03:54:41;14.80;99.90
56234;DHT22;42141;53.240;6.580;2022-09-09T03:57:08;15.50;99.90
56234;DHT22;42141;53.240;6.580;2022-09-09T03:59:35;14.80;99.90
56234;DHT22;42141;53.240;6.580;2022-09-09T04:02:01;14.90;99.90
56234;DHT22;42141;53.240;6.580;2022-09-09T04:04:27;14.90;99.90
56234;DHT22;42141;53.240;6.580;2022-09-09T04:06:53;14.90;99.90
56234;DHT22;42141;53.240;6.580;2022-09-09T04:09:19;14.90;99.90
56234;DHT22;42141;53.240;6.580;2022-09-09T04:11:44;15.00;99.90
56234;DHT22;42141;53.240;6.580;2022-09-09T04:14:11;15.60;99.90
56234;DHT22;42141;53.240;6.580;2022-09-09T04:16:38;14.90;99.90
56234;DHT22;42141;53.240;6.580;2022-09-09T04:19:04;15.00;99.90
56234;DHT22;42141;53.240;6.580;2022-09-09T04:21:30;15.10;99.90
56234;DHT22;42141;53.240;6.580;2022-09-09T04:23:56;15.40;99.90
56234;DHT22;42141;53.240;6.580;2022-09-09T04:26:22;15.10;99.90
56234;DHT22;42141;53.240;6.580;2022-09-09T04:28:48;15.20;99.90
56234;DHT22;42141;53.240;6.580;2022-09-09T04:31:21;15.20;99.90
56234;DHT22;42141;53.240;6.580;2022-09-09T04:33:49;15.10;99.90
56234;DHT22;42141;53.240;6.580;2022-09-09T04:36:16;15.20;99.90
56234;DHT22;42141;53.240;6.580;2022-09-09T04:38:42;15.20;99.90
56234;DHT22;42141;53.240;6.580;2022-09-09T04:41:10;15.20;99.90
56234;DHT22;42141;53.240;6.580;2022-09-09T04:43:37;15.40;99.90
56234;DHT22;42141;53.240;6.580;2022-09-09T04:46:03;15.20;99.90
56234;DHT22;42141;53.240;6.580;2022-09-09T04:48:29;16.30;99.90
56234;DHT22;42141;53.240;6.580;2022-09-09T04:51:04;15.20;99.90
56234;DHT22;42141;53.240;6.580;2022-09-09T04:53:31;15.20;99.90
56234;DHT22;42141;53.240;6.580;2022-09-09T04:58:33;15.20;99.90
56234;DHT22;42141;53.240;6.580;2022-09-09T05:01:28;16.00;99.90
56234;DHT22;42141;53.240;6.580;2022-09-09T05:03:53;15.10;99.90
56234;DHT22;42141;53.240;6.580;2022-09-09T05:06:21;15.20;99.90
56234;DHT22;42141;53.240;6.580;2022-09-09T05:08:47;15.10;99.90
56234;DHT22;42141;53.240;6.580;2022-09-09T05:11:27;15.10;99.90
56234;DHT22;42141;53.240;6.580;2022-09-09T05:13:53;15.10;99.90
56234;DHT22;42141;53.240;6.580;2022-09-09T05:16:20;15.30;99.90
56234;DHT22;42141;53.240;6.580;2022-09-09T05:18:46;15.10;99.90
56234;DHT22;42141;53.240;6.580;2022-09-09T05:21:13;15.40;99.90
56234;DHT22;42141;53.240;6.580;2022-09-09T05:23:40;15.00;99.90
56234;DHT22;42141;53.240;6.580;2022-09-09T05:26:07;15.00;99.90
56234;DHT22;42141;53.240;6.580;2022-09-09T05:28:35;15.00;99.90
56234;DHT22;42141;53.240;6.580;2022-09-09T05:31:08;15.00;99.90
56234;DHT22;42141;53.240;6.580;2022-09-09T05:33:35;15.00;99.90
56234;DHT22;42141;53.240;6.580;2022-09-09T05:36:04;15.00;99.90
56234;DHT22;42141;53.240;6.580;2022-09-09T05:38:31;15.00;99.90
56234;DHT22;42141;53.240;6.580;2022-09-09T05:40:57;15.50;99.90
56234;DHT22;42141;53.240;6.580;2022-09-09T05:43:24;15.00;99.90
56234;DHT22;42141;53.240;6.580;2022-09-09T05:46:10;15.00;99.90
56234;DHT22;42141;53.240;6.580;2022-09-09T05:48:38;15.00;99.90
56234;DHT22;42141;53.240;6.580;2022-09-09T05:51:06;15.00;99.90
56234;DHT22;42141;53.240;6.580;2022-09-09T05:53:32;14.90;99.90
56234;DHT22;42141;53.240;6.580;2022-09-09T05:56:16;14.90;99.90
56234;DHT22;42141;53.240;6.580;2022-09-09T05:58:45;15.00;99.90
56234;DHT22;42141;53.240;6.580;2022-09-09T06:01:19;15.00;99.90
56234;DHT22;42141;53.240;6.580;2022-09-09T06:03:47;15.00;99.90
56234;DHT22;42141;53.240;6.580;2022-09-09T06:06:16;16.00;99.90
56234;DHT22;42141;53.240;6.580;2022-09-09T06:08:44;15.00;99.90
56234;DHT22;42141;53.240;6.580;2022-09-09T06:13:44;15.00;99.90
56234;DHT22;42141;53.240;6.580;2022-09-09T06:16:11;15.00;99.90
56234;DHT22;42141;53.240;6.580;2022-09-09T06:18:38;15.30;99.90
56234;DHT22;42141;53.240;6.580;2022-09-09T06:21:06;15.10;99.90
56234;DHT22;42141;53.240;6.580;2022-09-09T06:23:33;15.10;99.90
56234;DHT22;42141;53.240;6.580;2022-09-09T06:26:07;15.10;99.90
56234;DHT22;42141;53.240;6.580;2022-09-09T06:28:34;15.10;99.90
56234;DHT22;42141;53.240;6.580;2022-09-09T06:31:08;15.10;99.90
56234;DHT22;42141;53.240;6.580;2022-09-09T06:33:38;15.10;99.90
56234;DHT22;42141;53.240;6.580;2022-09-09T06:36:11;15.50;99.90
56234;DHT22;42141;53.240;6.580;2022-09-09T06:38:37;16.10;99.90
56234;DHT22;42141;53.240;6.580;2022-09-09T06:41:04;15.20;99.90
56234;DHT22;42141;53.240;6.580;2022-09-09T06:43:31;15.30;99.90
56234;DHT22;42141;53.240;6.580;2022-09-09T06:45:58;15.60;99.90
56234;DHT22;42141;53.240;6.580;2022-09-09T06:48:25;15.30;99.90
56234;DHT22;42141;53.240;6.580;2022-09-09T06:51:05;15.40;99.90
56234;DHT22;42141;53.240;6.580;2022-09-09T06:53:32;15.40;99.90
56234;DHT22;42141;53.240;6.580;2022-09-09T06:56:13;16.00;99.90
56234;DHT22;42141;53.240;6.580;2022-09-09T06:58:43;15.40;99.90
56234;DHT22;42141;53.240;6.580;2022-09-09T07:01:13;15.70;99.90
56234;DHT22;42141;53.240;6.580;2022-09-09T07:03:40;15.80;99.90
56234;DHT22;42141;53.240;6.580;2022-09-09T07:06:06;16.60;99.90
56234;DHT22;42141;53.240;6.580;2022-09-09T07:08:33;15.60;99.90
56234;DHT22;42141;53.240;6.580;2022-09-09T07:11:07;15.60;99.90
56234;DHT22;42141;53.240;6.580;2022-09-09T07:13:33;15.80;99.90
56234;DHT22;42141;53.240;6.580;2022-09-09T07:16:11;15.70;99.90
56234;DHT22;42141;53.240;6.580;2022-09-09T07:18:36;15.70;99.90
56234;DHT22;42141;53.240;6.580;2022-09-09T07:21:03;15.80;99.90
56234;DHT22;42141;53.240;6.580;2022-09-09T07:23:30;15.90;99.90
56234;DHT22;42141;53.240;6.580;2022-09-09T07:25:57;15.90;99.90
56234;DHT22;42141;53.240;6.580;2022-09-09T07:28:23;15.90;99.90
56234;DHT22;42141;53.240;6.580;2022-09-09T07:30:57;16.00;99.90
56234;DHT22;42141;53.240;6.580;2022-09-09T07:33:24;16.00;99.90
56234;DHT22;42141;53.240;6.580;2022-09-09T07:35:50;16.10;99.90
56234;DHT22;42141;53.240;6.580;2022-09-09T07:38:16;16.10;99.90
56234;DHT22;42141;53.240;6.580;2022-09-09T07:40:42;16.10;99.90
56234;DHT22;42141;53.240;6.580;2022-09-09T07:43:09;16.20;99.90
56234;DHT22;42141;53.240;6.580;2022-09-09T07:45:35;16.20;99.90
56234;DHT22;42141;53.240;6.580;2022-09-09T07:48:01;16.20;99.90
56234;DHT22;42141;53.240;6.580;2022-09-09T07:50:27;16.30;99.90
56234;DHT22;42141;53.240;6.580;2022-09-09T07:52:53;16.80;99.90
56234;DHT22;42141;53.240;6.580;2022-09-09T07:55:20;16.40;99.90
56234;DHT22;42141;53.240;6.580;2022-09-09T07:57:46;16.40;99.90
56234;DHT22;42141;53.240;6.580;2022-09-09T08:00:12;16.50;99.90
56234;DHT22;42141;53.240;6.580;2022-09-09T08:02:40;16.50;99.90
56234;DHT22;42141;53.240;6.580;2022-09-09T08:05:06;16.50;99.90
56234;DHT22;42141;53.240;6.580;2022-09-09T08:07:32;16.60;99.90
56234;DHT22;42141;53.240;6.580;2022-09-09T08:09:57;16.60;99.90
56234;DHT22;42141;53.240;6.580;2022-09-09T08:12:23;16.70;99.90
56234;DHT22;42141;53.240;6.580;2022-09-09T08:14:49;16.20;99.90
56234;DHT22;42141;53.240;6.580;2022-09-09T08:17:14;17.30;99.90
56234;DHT22;42141;53.240;6.580;2022-09-09T08:19:40;16.90;99.90
56234;DHT22;42141;53.240;6.580;2022-09-09T08:22:07;16.90;99.90
56234;DHT22;42141;53.240;6.580;2022-09-09T08:24:33;17.00;99.90
56234;DHT22;42141;53.240;6.580;2022-09-09T08:26:59;17.10;99.90
56234;DHT22;42141;53.240;6.580;2022-09-09T08:29:25;17.10;99.90
56234;DHT22;42141;53.240;6.580;2022-09-09T08:31:53;17.20;99.90
56234;DHT22;42141;53.240;6.580;2022-09-09T08:34:20;17.30;99.90
56234;DHT22;42141;53.240;6.580;2022-09-09T08:36:47;17.40;99.90
56234;DHT22;42141;53.240;6.580;2022-09-09T08:39:15;17.40;99.90
56234;DHT22;42141;53.240;6.580;2022-09-09T08:42:05;17.50;99.90
56234;DHT22;42141;53.240;6.580;2022-09-09T08:45:09;17.60;99.90
56234;DHT22;42141;53.240;6.580;2022-09-09T08:50:35;17.90;99.90
56234;DHT22;42141;53.240;6.580;2022-09-09T08:53:23;17.90;99.90
56234;DHT22;42141;53.240;6.580;2022-09-09T08:55:56;18.00;99.90
56234;DHT22;42141;53.240;6.580;2022-09-09T08:58:31;18.10;99.90
56234;DHT22;42141;53.240;6.580;2022-09-09T09:01:16;18.20;99.90
56234;DHT22;42141;53.240;6.580;2022-09-09T09:09:46;18.50;99.90
56234;DHT22;42141;53.240;6.580;2022-09-09T09:12:19;18.40;99.90
56234;DHT22;42141;53.240;6.580;2022-09-09T09:14:47;18.50;99.90
56234;DHT22;42141;53.240;6.580;2022-09-09T09:17:19;18.50;99.90
56234;DHT22;42141;53.240;6.580;2022-09-09T09:19:46;18.40;99.90
56234;DHT22;42141;53.240;6.580;2022-09-09T09:22:20;18.30;99.90
56234;DHT22;42141;53.240;6.580;2022-09-09T09:31:03;18.20;99.90
56234;DHT22;42141;53.240;6.580;2022-09-09T09:33:55;18.20;99.90
56234;DHT22;42141;53.240;6.580;2022-09-09T09:36:39;18.30;99.90
56234;DHT22;42141;53.240;6.580;2022-09-09T09:39:06;18.40;99.90
56234;DHT22;42141;53.240;6.580;2022-09-09T09:44:04;18.50;99.90
56234;DHT22;42141;53.240;6.580;2022-09-09T09:46:30;18.50;99.90
56234;DHT22;42141;53.240;6.580;2022-09-09T09:49:03;18.60;99.90
56234;DHT22;42141;53.240;6.580;2022-09-09T09:51:32;18.60;99.90
56234;DHT22;42141;53.240;6.580;2022-09-09T09:56:39;18.80;99.90
56234;DHT22;42141;53.240;6.580;2022-09-09T10:01:47;19.00;99.90
56234;DHT22;42141;53.240;6.580;2022-09-09T10:04:15;19.20;99.90
56234;DHT22;42141;53.240;6.580;2022-09-09T10:06:41;19.20;99.90
56234;DHT22;42141;53.240;6.580;2022-09-09T10:09:28;19.30;99.90
56234;DHT22;42141;53.240;6.580;2022-09-09T10:15:02;19.20;99.90
56234;DHT22;42141;53.240;6.580;2022-09-09T10:22:35;19.30;99.90
56234;DHT22;42141;53.240;6.580;2022-09-09T10:38:52;19.40;99.90
56234;DHT22;42141;53.240;6.580;2022-09-09T10:44:15;19.30;99.90
56234;DHT22;42141;53.240;6.580;2022-09-09T10:55:17;19.30;99.90
56234;DHT22;42141;53.240;6.580;2022-09-09T10:57:45;19.40;99.90
56234;DHT22;42141;53.240;6.580;2022-09-09T11:00:22;19.30;99.90
56234;DHT22;42141;53.240;6.580;2022-09-09T11:02:56;19.30;99.90
56234;DHT22;42141;53.240;6.580;2022-09-09T11:05:27;19.30;99.90
56234;DHT22;42141;53.240;6.580;2022-09-09T11:08:00;19.30;99.90
56234;DHT22;42141;53.240;6.580;2022-09-09T11:13:19;19.70;99.90
56234;DHT22;42141;53.240;6.580;2022-09-09T11:15:54;19.90;99.90
56234;DHT22;42141;53.240;6.580;2022-09-09T11:18:23;20.00;99.90
56234;DHT22;42141;53.240;6.580;2022-09-09T11:20:51;20.10;99.90
56234;DHT22;42141;53.240;6.580;2022-09-09T11:23:25;20.30;99.90
56234;DHT22;42141;53.240;6.580;2022-09-09T11:25:57;20.40;99.90
56234;DHT22;42141;53.240;6.580;2022-09-09T11:32:05;20.60;99.90
56234;DHT22;42141;53.240;6.580;2022-09-09T11:34:50;20.80;99.90
56234;DHT22;42141;53.240;6.580;2022-09-09T11:40:25;21.20;99.90
56234;DHT22;42141;53.240;6.580;2022-09-09T11:43:29;21.30;99.90
56234;DHT22;42141;53.240;6.580;2022-09-09T11:45:59;21.50;99.90
56234;DHT22;42141;53.240;6.580;2022-09-09T11:48:37;21.50;99.90
56234;DHT22;42141;53.240;6.580;2022-09-09T11:51:06;21.50;99.90
56234;DHT22;42141;53.240;6.580;2022-09-09T11:53:34;21.60;99.90
56234;DHT22;42141;53.240;6.580;2022-09-09T11:56:09;21.60;99.90
56234;DHT22;42141;53.240;6.580;2022-09-09T11:58:44;21.50;99.90
56234;DHT22;42141;53.240;6.580;2022-09-09T12:01:35;21.30;99.90
56234;DHT22;42141;53.240;6.580;2022-09-09T12:07:00;21.00;99.90
56234;DHT22;42141;53.240;6.580;2022-09-09T12:09:51;21.00;99.90
56234;DHT22;42141;53.240;6.580;2022-09-09T12:12:21;21.10;99.90
56234;DHT22;42141;53.240;6.580;2022-09-09T12:17:51;20.90;99.90
56234;DHT22;42141;53.240;6.580;2022-09-09T12:31:05;20.90;99.90
56234;DHT22;42141;53.240;6.580;2022-09-09T12:33:39;21.00;99.90
56234;DHT22;42141;53.240;6.580;2022-09-09T12:36:14;21.00;99.90
56234;DHT22;42141;53.240;6.580;2022-09-09T12:38:42;21.10;99.90
56234;DHT22;42141;53.240;6.580;2022-09-09T12:41:28;21.10;99.90
56234;DHT22;42141;53.240;6.580;2022-09-09T12:44:09;21.00;99.90
56234;DHT22;42141;53.240;6.580;2022-09-09T12:46:41;20.90;99.90
56234;DHT22;42141;53.240;6.580;2022-09-09T12:51:52;20.70;99.90
56234;DHT22;42141;53.240;6.580;2022-09-09T12:54:19;20.60;99.90
56234;DHT22;42141;53.240;6.580;2022-09-09T12:56:46;20.70;99.90
56234;DHT22;42141;53.240;6.580;2022-09-09T12:59:35;20.80;99.90
56234;DHT22;42141;53.240;6.580;2022-09-09T13:02:02;20.90;99.90
56234;DHT22;42141;53.240;6.580;2022-09-09T13:04:27;20.90;99.90
56234;DHT22;42141;53.240;6.580;2022-09-09T13:07:06;21.00;99.90
56234;DHT22;42141;53.240;6.580;2022-09-09T13:09:35;21.10;99.90
56234;DHT22;42141;53.240;6.580;2022-09-09T13:12:02;21.20;99.90
56234;DHT22;42141;53.240;6.580;2022-09-09T13:14:33;21.30;99.90
56234;DHT22;42141;53.240;6.580;2022-09-09T13:17:04;21.40;99.90
56234;DHT22;42141;53.240;6.580;2022-09-09T13:19:34;21.60;99.90
56234;DHT22;42141;53.240;6.580;2022-09-09T13:22:11;21.70;99.90
56234;DHT22;42141;53.240;6.580;2022-09-09T13:24:38;21.90;99.90
56234;DHT22;42141;53.240;6.580;2022-09-09T13:27:26;21.90;99.90
56234;DHT22;42141;53.240;6.580;2022-09-09T13:29:54;21.90;99.90
56234;DHT22;42141;53.240;6.580;2022-09-09T13:32:21;22.00;99.90
56234;DHT22;42141;53.240;6.580;2022-09-09T13:34:59;22.20;99.90
56234;DHT22;42141;53.240;6.580;2022-09-09T13:37:35;22.30;99.90
56234;DHT22;42141;53.240;6.580;2022-09-09T13:40:04;22.20;99.90
56234;DHT22;42141;53.240;6.580;2022-09-09T13:42:33;22.00;99.90
56234;DHT22;42141;53.240;6.580;2022-09-09T13:45:01;21.90;99.90
56234;DHT22;42141;53.240;6.580;2022-09-09T13:47:35;21.90;99.90
56234;DHT22;42141;53.240;6.580;2022-09-09T13:50:22;21.90;99.90
56234;DHT22;42141;53.240;6.580;2022-09-09T13:52:49;21.80;99.90
56234;DHT22;42141;53.240;6.580;2022-09-09T13:55:17;21.60;99.90
56234;DHT22;42141;53.240;6.580;2022-09-09T13:58:01;21.40;99.90
56234;DHT22;42141;53.240;6.580;2022-09-09T14:00:30;21.30;99.90
56234;DHT22;42141;53.240;6.580;2022-09-09T14:02:56;21.10;99.90
56234;DHT22;42141;53.240;6.580;2022-09-09T14:05:22;20.90;99.90
56234;DHT22;42141;53.240;6.580;2022-09-09T14:07:49;21.00;99.90
56234;DHT22;42141;53.240;6.580;2022-09-09T14:10:16;21.30;99.90
56234;DHT22;42141;53.240;6.580;2022-09-09T14:12:42;21.50;99.90
56234;DHT22;42141;53.240;6.580;2022-09-09T14:15:10;21.80;99.90
56234;DHT22;42141;53.240;6.580;2022-09-09T14:17:36;22.10;99.90
56234;DHT22;42141;53.240;6.580;2022-09-09T14:20:03;22.10;99.90
56234;DHT22;42141;53.240;6.580;2022-09-09T14:22:31;22.00;99.90
56234;DHT22;42141;53.240;6.580;2022-09-09T14:24:56;21.90;99.90
56234;DHT22;42141;53.240;6.580;2022-09-09T14:27:23;21.60;99.90
56234;DHT22;42141;53.240;6.580;2022-09-09T14:29:48;21.40;99.90
56234;DHT22;42141;53.240;6.580;2022-09-09T14:32:14;21.30;99.90
56234;DHT22;42141;53.240;6.580;2022-09-09T14:34:40;21.30;99.90
56234;DHT22;42141;53.240;6.580;2022-09-09T14:37:06;21.40;99.90
56234;DHT22;42141;53.240;6.580;2022-09-09T14:39:31;21.50;99.90
56234;DHT22;42141;53.240;6.580;2022-09-09T14:41:57;21.40;99.90
56234;DHT22;42141;53.240;6.580;2022-09-09T14:44:23;21.30;99.90
56234;DHT22;42141;53.240;6.580;2022-09-09T14:46:49;21.20;99.90
56234;DHT22;42141;53.240;6.580;2022-09-09T14:49:16;21.10;99.90
56234;DHT22;42141;53.240;6.580;2022-09-09T14:51:41;20.90;99.90
56234;DHT22;42141;53.240;6.580;2022-09-09T14:54:07;20.80;99.90
56234;DHT22;42141;53.240;6.580;2022-09-09T14:56:33;20.60;99.90
56234;DHT22;42141;53.240;6.580;2022-09-09T14:59:03;20.50;99.90
56234;DHT22;42141;53.240;6.580;2022-09-09T15:01:30;20.30;99.90
56234;DHT22;42141;53.240;6.580;2022-09-09T15:04:01;20.10;99.90
56234;DHT22;42141;53.240;6.580;2022-09-09T15:06:29;20.10;99.90
56234;DHT22;42141;53.240;6.580;2022-09-09T15:08:56;20.00;99.90
56234;DHT22;42141;53.240;6.580;2022-09-09T15:11:23;20.00;99.90
56234;DHT22;42141;53.240;6.580;2022-09-09T15:13:51;20.00;99.90
56234;DHT22;42141;53.240;6.580;2022-09-09T15:16:19;19.90;99.90
56234;DHT22;42141;53.240;6.580;2022-09-09T15:18:46;19.90;99.90
56234;DHT22;42141;53.240;6.580;2022-09-09T15:21:14;20.00;99.90
56234;DHT22;42141;53.240;6.580;2022-09-09T15:23:41;20.10;99.90
56234;DHT22;42141;53.240;6.580;2022-09-09T15:26:07;20.10;99.90
56234;DHT22;42141;53.240;6.580;2022-09-09T15:28:35;20.10;99.90
56234;DHT22;42141;53.240;6.580;2022-09-09T15:31:09;20.10;99.90
56234;DHT22;42141;53.240;6.580;2022-09-09T15:33:35;20.10;99.90
56234;DHT22;42141;53.240;6.580;2022-09-09T15:36:34;20.10;99.90
56234;DHT22;42141;53.240;6.580;2022-09-09T15:39:06;20.00;99.90
56234;DHT22;42141;53.240;6.580;2022-09-09T15:41:33;19.90;99.90
56234;DHT22;42141;53.240;6.580;2022-09-09T15:43:59;19.90;99.90
56234;DHT22;42141;53.240;6.580;2022-09-09T15:46:39;19.90;99.90
56234;DHT22;42141;53.240;6.580;2022-09-09T15:51:40;19.80;99.90
56234;DHT22;42141;53.240;6.580;2022-09-09T15:54:06;19.80;99.90
56234;DHT22;42141;53.240;6.580;2022-09-09T15:56:32;19.80;99.90
56234;DHT22;42141;53.240;6.580;2022-09-09T15:58:59;19.80;99.90
56234;DHT22;42141;53.240;6.580;2022-09-09T16:01:26;19.70;99.90
56234;DHT22;42141;53.240;6.580;2022-09-09T16:03:53;19.70;99.90
56234;DHT22;42141;53.240;6.580;2022-09-09T16:06:20;19.60;99.90
56234;DHT22;42141;53.240;6.580;2022-09-09T16:08:48;19.60;99.90
56234;DHT22;42141;53.240;6.580;2022-09-09T16:11:31;19.60;99.90
56234;DHT22;42141;53.240;6.580;2022-09-09T16:13:58;19.60;99.90
56234;DHT22;42141;53.240;6.580;2022-09-09T16:16:26;19.50;99.90
56234;DHT22;42141;53.240;6.580;2022-09-09T16:19:19;19.50;99.90
56234;DHT22;42141;53.240;6.580;2022-09-09T16:21:46;19.50;99.90
56234;DHT22;42141;53.240;6.580;2022-09-09T16:24:15;19.40;99.90
56234;DHT22;42141;53.240;6.580;2022-09-09T16:26:43;19.40;99.90
56234;DHT22;42141;53.240;6.580;2022-09-09T16:29:11;19.30;99.90
56234;DHT22;42141;53.240;6.580;2022-09-09T16:31:37;19.30;99.90
56234;DHT22;42141;53.240;6.580;2022-09-09T16:34:03;19.30;99.90
56234;DHT22;42141;53.240;6.580;2022-09-09T16:36:30;19.20;99.90
56234;DHT22;42141;53.240;6.580;2022-09-09T16:38:58;19.20;99.90
56234;DHT22;42141;53.240;6.580;2022-09-09T16:41:28;19.20;99.90
56234;DHT22;42141;53.240;6.580;2022-09-09T16:43:56;19.10;99.90
56234;DHT22;42141;53.240;6.580;2022-09-09T16:46:22;19.10;99.90
56234;DHT22;42141;53.240;6.580;2022-09-09T16:48:49;19.00;99.90
56234;DHT22;42141;53.240;6.580;2022-09-09T16:51:17;19.00;99.90
56234;DHT22;42141;53.240;6.580;2022-09-09T16:53:44;19.00;99.90
56234;DHT22;42141;53.240;6.580;2022-09-09T16:56:13;18.90;99.90
56234;DHT22;42141;53.240;6.580;2022-09-09T16:58:39;18.90;99.90
56234;DHT22;42141;53.240;6.580;2022-09-09T17:01:05;18.80;99.90
56234;DHT22;42141;53.240;6.580;2022-09-09T17:03:32;18.70;99.90
56234;DHT22;42141;53.240;6.580;2022-09-09T17:05:58;18.60;99.90
56234;DHT22;42141;53.240;6.580;2022-09-09T17:08:30;18.60;99.90
56234;DHT22;42141;53.240;6.580;2022-09-09T17:10:57;18.50;99.90
56234;DHT22;42141;53.240;6.580;2022-09-09T17:13:23;18.40;99.90
56234;DHT22;42141;53.240;6.580;2022-09-09T17:15:49;18.40;99.90
56234;DHT22;42141;53.240;6.580;2022-09-09T17:18:15;18.40;99.90
56234;DHT22;42141;53.240;6.580;2022-09-09T17:20:41;18.30;99.90
56234;DHT22;42141;53.240;6.580;2022-09-09T17:23:11;18.30;99.90
56234;DHT22;42141;53.240;6.580;2022-09-09T17:25:41;18.30;99.90
56234;DHT22;42141;53.240;6.580;2022-09-09T17:28:06;18.20;99.90
56234;DHT22;42141;53.240;6.580;2022-09-09T17:30:37;18.20;99.90
56234;DHT22;42141;53.240;6.580;2022-09-09T17:33:04;18.00;99.90
56234;DHT22;42141;53.240;6.580;2022-09-09T17:35:30;18.00;99.90
56234;DHT22;42141;53.240;6.580;2022-09-09T17:37:56;17.90;99.90
56234;DHT22;42141;53.240;6.580;2022-09-09T17:40:22;17.80;99.90
56234;DHT22;42141;53.240;6.580;2022-09-09T17:42:48;17.80;99.90
56234;DHT22;42141;53.240;6.580;2022-09-09T17:45:14;17.70;99.90
56234;DHT22;42141;53.240;6.580;2022-09-09T17:47:43;17.70;99.90